sensor_id;sensor_type;location;lat;lon;timestamp;P1;durP1;ratioP1;P2;durP2;ratioP2
38358;SDS011;42072;48.044;14.416;2023-09-12T00:02:15;20.30;;;17.08;;
38358;SDS011;42072;48.044;14.416;2023-09-12T00:04:43;22.25;;;17.65;;
38358;SDS011;42072;48.044;14.416;2023-09-12T00:07:10;19.63;;;17.08;;
38358;SDS011;42072;48.044;14.416;2023-09-12T00:09:37;20.48;;;17.92;;
38358;SDS011;42072;48.044;14.416;2023-09-12T00:12:05;26.42;;;18.95;;
38358;SDS011;42072;48.044;14.416;2023-09-12T00:14:32;24.17;;;19.20;;
38358;SDS011;42072;48.044;14.416;2023-09-12T00:16:59;24.58;;;18.30;;
38358;SDS011;42072;48.044;14.416;2023-09-12T00:19:27;23.10;;;19.25;;
38358;SDS011;42072;48.044;14.416;2023-09-12T00:21:54;23.77;;;19.63;;
38358;SDS011;42072;48.044;14.416;2023-09-12T00:24:21;22.85;;;19.17;;
38358;SDS011;42072;48.044;14.416;2023-09-12T00:26:49;19.48;;;16.20;;
38358;SDS011;42072;48.044;14.416;2023-09-12T00:29:16;19.50;;;16.42;;
38358;SDS011;42072;48.044;14.416;2023-09-12T00:31:43;18.80;;;16.15;;
38358;SDS011;42072;48.044;14.416;2023-09-12T00:34:15;21.30;;;16.85;;
38358;SDS011;42072;48.044;14.416;2023-09-12T00:36:44;20.95;;;16.73;;
38358;SDS011;42072;48.044;14.416;2023-09-12T00:39:11;22.33;;;16.08;;
38358;SDS011;42072;48.044;14.416;2023-09-12T00:41:38;17.98;;;16.08;;
38358;SDS011;42072;48.044;14.416;2023-09-12T00:44:05;17.23;;;15.43;;
38358;SDS011;42072;48.044;14.416;2023-09-12T00:46:33;18.42;;;16.35;;
38358;SDS011;42072;48.044;14.416;2023-09-12T00:49:02;22.10;;;18.20;;
38358;SDS011;42072;48.044;14.416;2023-09-12T00:51:30;22.75;;;17.25;;
38358;SDS011;42072;48.044;14.416;2023-09-12T00:53:59;22.02;;;17.77;;
38358;SDS011;42072;48.044;14.416;2023-09-12T00:56:27;20.90;;;16.10;;
38358;SDS011;42072;48.044;14.416;2023-09-12T00:58:55;21.02;;;15.88;;
38358;SDS011;42072;48.044;14.416;2023-09-12T01:01:24;19.63;;;15.32;;
38358;SDS011;42072;48.044;14.416;2023-09-12T01:03:51;18.73;;;15.70;;
38358;SDS011;42072;48.044;14.416;2023-09-12T01:06:19;17.75;;;15.18;;
38358;SDS011;42072;48.044;14.416;2023-09-12T01:08:50;17.20;;;15.20;;
38358;SDS011;42072;48.044;14.416;2023-09-12T01:11:17;19.73;;;15.63;;
38358;SDS011;42072;48.044;14.416;2023-09-12T01:13:45;22.17;;;15.43;;
38358;SDS011;42072;48.044;14.416;2023-09-12T01:16:12;17.25;;;14.48;;
38358;SDS011;42072;48.044;14.416;2023-09-12T01:18:39;18.92;;;14.55;;
38358;SDS011;42072;48.044;14.416;2023-09-12T01:29:13;16.67;;;14.27;;
38358;SDS011;42072;48.044;14.416;2023-09-12T01:31:42;15.88;;;14.13;;
38358;SDS011;42072;48.044;14.416;2023-09-12T01:34:11;21.00;;;15.57;;
38358;SDS011;42072;48.044;14.416;2023-09-12T01:36:38;21.05;;;15.68;;
38358;SDS011;42072;48.044;14.416;2023-09-12T01:39:06;19.73;;;17.55;;
38358;SDS011;42072;48.044;14.416;2023-09-12T01:41:34;23.75;;;19.38;;
38358;SDS011;42072;48.044;14.416;2023-09-12T01:44:04;24.10;;;19.25;;
38358;SDS011;42072;48.044;14.416;2023-09-12T01:46:34;22.25;;;18.92;;
38358;SDS011;42072;48.044;14.416;2023-09-12T01:49:04;25.15;;;19.70;;
38358;SDS011;42072;48.044;14.416;2023-09-12T01:51:32;25.38;;;20.20;;
38358;SDS011;42072;48.044;14.416;2023-09-12T01:54:01;24.73;;;20.77;;
38358;SDS011;42072;48.044;14.416;2023-09-12T01:56:30;25.60;;;20.48;;
38358;SDS011;42072;48.044;14.416;2023-09-12T01:58:59;23.67;;;19.30;;
38358;SDS011;42072;48.044;14.416;2023-09-12T02:01:27;23.65;;;18.38;;
38358;SDS011;42072;48.044;14.416;2023-09-12T02:03:54;21.65;;;17.60;;
38358;SDS011;42072;48.044;14.416;2023-09-12T02:06:21;23.13;;;17.85;;
38358;SDS011;42072;48.044;14.416;2023-09-12T02:08:49;22.67;;;18.05;;
38358;SDS011;42072;48.044;14.416;2023-09-12T02:11:16;23.63;;;18.90;;
38358;SDS011;42072;48.044;14.416;2023-09-12T02:13:43;26.38;;;19.05;;
38358;SDS011;42072;48.044;14.416;2023-09-12T02:16:10;20.98;;;17.30;;
38358;SDS011;42072;48.044;14.416;2023-09-12T02:18:37;20.95;;;16.20;;
38358;SDS011;42072;48.044;14.416;2023-09-12T02:21:05;20.15;;;16.55;;
38358;SDS011;42072;48.044;14.416;2023-09-12T02:23:32;19.30;;;16.85;;
38358;SDS011;42072;48.044;14.416;2023-09-12T02:25:59;19.83;;;16.35;;
38358;SDS011;42072;48.044;14.416;2023-09-12T02:28:26;20.15;;;17.20;;
38358;SDS011;42072;48.044;14.416;2023-09-12T02:30:54;18.95;;;16.10;;
38358;SDS011;42072;48.044;14.416;2023-09-12T02:33:21;19.67;;;16.33;;
38358;SDS011;42072;48.044;14.416;2023-09-12T02:35:48;22.85;;;17.08;;
38358;SDS011;42072;48.044;14.416;2023-09-12T02:38:16;20.77;;;17.67;;
38358;SDS011;42072;48.044;14.416;2023-09-12T02:40:44;21.02;;;17.13;;
38358;SDS011;42072;48.044;14.416;2023-09-12T02:43:11;21.60;;;17.33;;
38358;SDS011;42072;48.044;14.416;2023-09-12T02:45:38;24.58;;;16.38;;
38358;SDS011;42072;48.044;14.416;2023-09-12T02:48:06;21.42;;;16.10;;
38358;SDS011;42072;48.044;14.416;2023-09-12T02:50:33;19.88;;;15.38;;
38358;SDS011;42072;48.044;14.416;2023-09-12T02:53:00;19.00;;;15.85;;
38358;SDS011;42072;48.044;14.416;2023-09-12T02:55:27;17.33;;;15.43;;
38358;SDS011;42072;48.044;14.416;2023-09-12T02:57:54;17.38;;;14.50;;
38358;SDS011;42072;48.044;14.416;2023-09-12T03:00:22;19.55;;;14.85;;
38358;SDS011;42072;48.044;14.416;2023-09-12T03:02:49;18.80;;;14.77;;
38358;SDS011;42072;48.044;14.416;2023-09-12T03:05:17;17.10;;;14.55;;
38358;SDS011;42072;48.044;14.416;2023-09-12T03:07:44;19.73;;;14.98;;
38358;SDS011;42072;48.044;14.416;2023-09-12T03:10:11;19.23;;;16.17;;
38358;SDS011;42072;48.044;14.416;2023-09-12T03:12:38;19.33;;;17.20;;
38358;SDS011;42072;48.044;14.416;2023-09-12T03:15:06;20.55;;;16.63;;
38358;SDS011;42072;48.044;14.416;2023-09-12T03:17:36;20.75;;;17.00;;
38358;SDS011;42072;48.044;14.416;2023-09-12T03:20:03;23.13;;;18.80;;
38358;SDS011;42072;48.044;14.416;2023-09-12T03:22:35;28.25;;;19.73;;
38358;SDS011;42072;48.044;14.416;2023-09-12T03:25:04;28.08;;;20.98;;
38358;SDS011;42072;48.044;14.416;2023-09-12T03:27:32;26.17;;;19.95;;
38358;SDS011;42072;48.044;14.416;2023-09-12T03:30:00;28.48;;;20.67;;
38358;SDS011;42072;48.044;14.416;2023-09-12T03:32:27;24.65;;;20.35;;
38358;SDS011;42072;48.044;14.416;2023-09-12T03:34:54;25.42;;;20.55;;
38358;SDS011;42072;48.044;14.416;2023-09-12T03:37:21;20.10;;;17.20;;
38358;SDS011;42072;48.044;14.416;2023-09-12T03:39:49;21.45;;;16.63;;
38358;SDS011;42072;48.044;14.416;2023-09-12T03:42:16;17.77;;;15.02;;
38358;SDS011;42072;48.044;14.416;2023-09-12T03:44:43;19.80;;;15.85;;
38358;SDS011;42072;48.044;14.416;2023-09-12T03:47:10;20.02;;;15.30;;
38358;SDS011;42072;48.044;14.416;2023-09-12T03:49:37;17.80;;;15.55;;
38358;SDS011;42072;48.044;14.416;2023-09-12T03:52:05;16.55;;;14.73;;
38358;SDS011;42072;48.044;14.416;2023-09-12T03:54:32;23.17;;;15.40;;
38358;SDS011;42072;48.044;14.416;2023-09-12T03:56:59;19.52;;;16.50;;
38358;SDS011;42072;48.044;14.416;2023-09-12T03:59:26;19.83;;;15.77;;
38358;SDS011;42072;48.044;14.416;2023-09-12T04:01:54;22.92;;;17.55;;
38358;SDS011;42072;48.044;14.416;2023-09-12T04:04:21;18.33;;;15.90;;
38358;SDS011;42072;48.044;14.416;2023-09-12T04:06:48;19.38;;;16.05;;
38358;SDS011;42072;48.044;14.416;2023-09-12T04:09:16;18.63;;;15.73;;
38358;SDS011;42072;48.044;14.416;2023-09-12T04:11:43;21.13;;;16.27;;
38358;SDS011;42072;48.044;14.416;2023-09-12T04:14:14;21.73;;;15.70;;
38358;SDS011;42072;48.044;14.416;2023-09-12T04:16:41;21.65;;;17.70;;
38358;SDS011;42072;48.044;14.416;2023-09-12T04:19:08;22.30;;;17.38;;
38358;SDS011;42072;48.044;14.416;2023-09-12T04:21:36;19.67;;;16.88;;
38358;SDS011;42072;48.044;14.416;2023-09-12T04:24:03;21.20;;;17.80;;
38358;SDS011;42072;48.044;14.416;2023-09-12T04:26:31;21.70;;;18.40;;
38358;SDS011;42072;48.044;14.416;2023-09-12T04:28:58;22.08;;;18.25;;
38358;SDS011;42072;48.044;14.416;2023-09-12T04:31:25;26.02;;;18.88;;
38358;SDS011;42072;48.044;14.416;2023-09-12T04:33:52;24.50;;;19.17;;
38358;SDS011;42072;48.044;14.416;2023-09-12T04:36:21;23.75;;;19.77;;
38358;SDS011;42072;48.044;14.416;2023-09-12T04:38:49;23.30;;;20.23;;
38358;SDS011;42072;48.044;14.416;2023-09-12T04:41:16;25.50;;;19.63;;
38358;SDS011;42072;48.044;14.416;2023-09-12T04:43:43;20.60;;;17.25;;
38358;SDS011;42072;48.044;14.416;2023-09-12T04:46:11;20.13;;;16.42;;
38358;SDS011;42072;48.044;14.416;2023-09-12T04:48:39;20.00;;;14.95;;
38358;SDS011;42072;48.044;14.416;2023-09-12T04:51:07;20.60;;;14.98;;
38358;SDS011;42072;48.044;14.416;2023-09-12T04:53:35;16.17;;;14.38;;
38358;SDS011;42072;48.044;14.416;2023-09-12T04:56:02;18.95;;;13.88;;
38358;SDS011;42072;48.044;14.416;2023-09-12T04:58:30;16.58;;;14.20;;
38358;SDS011;42072;48.044;14.416;2023-09-12T05:00:57;17.13;;;14.38;;
38358;SDS011;42072;48.044;14.416;2023-09-12T05:03:25;15.20;;;13.60;;
38358;SDS011;42072;48.044;14.416;2023-09-12T05:05:53;15.82;;;13.50;;
38358;SDS011;42072;48.044;14.416;2023-09-12T05:08:20;17.27;;;14.50;;
38358;SDS011;42072;48.044;14.416;2023-09-12T05:10:47;21.88;;;14.63;;
38358;SDS011;42072;48.044;14.416;2023-09-12T05:13:14;18.55;;;14.85;;
38358;SDS011;42072;48.044;14.416;2023-09-12T05:15:43;20.48;;;15.50;;
38358;SDS011;42072;48.044;14.416;2023-09-12T05:18:10;18.42;;;15.65;;
38358;SDS011;42072;48.044;14.416;2023-09-12T05:20:38;19.20;;;15.45;;
38358;SDS011;42072;48.044;14.416;2023-09-12T05:23:05;20.15;;;16.02;;
38358;SDS011;42072;48.044;14.416;2023-09-12T05:25:32;18.80;;;15.68;;
38358;SDS011;42072;48.044;14.416;2023-09-12T05:27:59;18.75;;;15.90;;
38358;SDS011;42072;48.044;14.416;2023-09-12T05:30:27;20.55;;;16.50;;
38358;SDS011;42072;48.044;14.416;2023-09-12T05:32:54;18.73;;;14.48;;
38358;SDS011;42072;48.044;14.416;2023-09-12T05:35:21;17.20;;;15.32;;
38358;SDS011;42072;48.044;14.416;2023-09-12T05:37:49;17.55;;;14.98;;
38358;SDS011;42072;48.044;14.416;2023-09-12T05:40:18;17.58;;;15.57;;
38358;SDS011;42072;48.044;14.416;2023-09-12T05:42:45;20.40;;;16.65;;
38358;SDS011;42072;48.044;14.416;2023-09-12T05:45:12;16.95;;;15.02;;
38358;SDS011;42072;48.044;14.416;2023-09-12T05:47:40;18.63;;;14.60;;
38358;SDS011;42072;48.044;14.416;2023-09-12T05:50:07;15.73;;;13.75;;
38358;SDS011;42072;48.044;14.416;2023-09-12T05:52:34;18.92;;;16.75;;
38358;SDS011;42072;48.044;14.416;2023-09-12T05:55:02;27.70;;;24.80;;
38358;SDS011;42072;48.044;14.416;2023-09-12T05:57:31;25.15;;;16.13;;
38358;SDS011;42072;48.044;14.416;2023-09-12T06:00:01;17.48;;;14.60;;
38358;SDS011;42072;48.044;14.416;2023-09-12T06:02:31;15.13;;;13.52;;
38358;SDS011;42072;48.044;14.416;2023-09-12T06:05:00;16.55;;;13.93;;
38358;SDS011;42072;48.044;14.416;2023-09-12T06:07:27;18.42;;;13.43;;
38358;SDS011;42072;48.044;14.416;2023-09-12T06:09:54;15.88;;;13.23;;
38358;SDS011;42072;48.044;14.416;2023-09-12T06:12:21;18.92;;;13.40;;
38358;SDS011;42072;48.044;14.416;2023-09-12T06:14:50;16.98;;;13.52;;
38358;SDS011;42072;48.044;14.416;2023-09-12T06:17:19;20.17;;;15.00;;
38358;SDS011;42072;48.044;14.416;2023-09-12T06:19:47;18.73;;;12.48;;
38358;SDS011;42072;48.044;14.416;2023-09-12T06:22:17;19.27;;;13.25;;
38358;SDS011;42072;48.044;14.416;2023-09-12T06:24:46;17.08;;;12.30;;
38358;SDS011;42072;48.044;14.416;2023-09-12T06:27:13;19.65;;;11.98;;
38358;SDS011;42072;48.044;14.416;2023-09-12T06:29:46;17.35;;;15.27;;
38358;SDS011;42072;48.044;14.416;2023-09-12T06:32:17;19.75;;;17.65;;
38358;SDS011;42072;48.044;14.416;2023-09-12T06:34:45;19.35;;;16.30;;
38358;SDS011;42072;48.044;14.416;2023-09-12T06:37:13;19.20;;;16.13;;
38358;SDS011;42072;48.044;14.416;2023-09-12T06:39:41;15.40;;;12.48;;
38358;SDS011;42072;48.044;14.416;2023-09-12T06:42:08;13.98;;;12.02;;
38358;SDS011;42072;48.044;14.416;2023-09-12T06:44:36;12.98;;;11.07;;
38358;SDS011;42072;48.044;14.416;2023-09-12T06:47:04;13.30;;;11.52;;
38358;SDS011;42072;48.044;14.416;2023-09-12T06:49:31;13.80;;;11.68;;
38358;SDS011;42072;48.044;14.416;2023-09-12T06:52:01;13.32;;;11.73;;
38358;SDS011;42072;48.044;14.416;2023-09-12T06:54:29;12.10;;;10.90;;
38358;SDS011;42072;48.044;14.416;2023-09-12T06:56:56;15.93;;;11.73;;
38358;SDS011;42072;48.044;14.416;2023-09-12T06:59:23;13.05;;;11.48;;
38358;SDS011;42072;48.044;14.416;2023-09-12T07:01:51;11.95;;;10.80;;
38358;SDS011;42072;48.044;14.416;2023-09-12T07:04:18;14.10;;;11.45;;
38358;SDS011;42072;48.044;14.416;2023-09-12T07:06:45;13.30;;;11.40;;
38358;SDS011;42072;48.044;14.416;2023-09-12T07:09:12;13.30;;;11.70;;
38358;SDS011;42072;48.044;14.416;2023-09-12T07:11:41;15.43;;;11.10;;
38358;SDS011;42072;48.044;14.416;2023-09-12T07:14:09;16.70;;;11.23;;
38358;SDS011;42072;48.044;14.416;2023-09-12T07:16:36;13.80;;;11.43;;
38358;SDS011;42072;48.044;14.416;2023-09-12T07:19:04;11.02;;;9.93;;
38358;SDS011;42072;48.044;14.416;2023-09-12T07:21:31;13.13;;;10.80;;
38358;SDS011;42072;48.044;14.416;2023-09-12T07:23:59;14.65;;;11.27;;
38358;SDS011;42072;48.044;14.416;2023-09-12T07:26:26;12.68;;;10.82;;
38358;SDS011;42072;48.044;14.416;2023-09-12T07:28:54;12.50;;;10.80;;
38358;SDS011;42072;48.044;14.416;2023-09-12T07:31:21;14.63;;;11.30;;
38358;SDS011;42072;48.044;14.416;2023-09-12T07:33:49;14.00;;;10.70;;
38358;SDS011;42072;48.044;14.416;2023-09-12T07:36:16;16.05;;;10.82;;
38358;SDS011;42072;48.044;14.416;2023-09-12T07:38:43;14.80;;;11.00;;
38358;SDS011;42072;48.044;14.416;2023-09-12T07:41:12;13.00;;;10.98;;
38358;SDS011;42072;48.044;14.416;2023-09-12T07:43:39;14.13;;;11.27;;
38358;SDS011;42072;48.044;14.416;2023-09-12T07:46:07;15.60;;;10.88;;
38358;SDS011;42072;48.044;14.416;2023-09-12T07:48:34;13.90;;;10.90;;
38358;SDS011;42072;48.044;14.416;2023-09-12T07:51:10;12.23;;;11.02;;
38358;SDS011;42072;48.044;14.416;2023-09-12T07:53:41;14.45;;;10.85;;
38358;SDS011;42072;48.044;14.416;2023-09-12T07:56:09;11.63;;;10.43;;
38358;SDS011;42072;48.044;14.416;2023-09-12T07:58:37;11.95;;;10.75;;
38358;SDS011;42072;48.044;14.416;2023-09-12T08:01:07;12.38;;;10.80;;
38358;SDS011;42072;48.044;14.416;2023-09-12T08:03:36;14.60;;;11.70;;
38358;SDS011;42072;48.044;14.416;2023-09-12T08:06:06;16.60;;;13.25;;
38358;SDS011;42072;48.044;14.416;2023-09-12T08:08:34;19.95;;;13.60;;
38358;SDS011;42072;48.044;14.416;2023-09-12T08:11:02;24.63;;;13.82;;
38358;SDS011;42072;48.044;14.416;2023-09-12T08:13:30;16.77;;;13.18;;
38358;SDS011;42072;48.044;14.416;2023-09-12T08:15:57;30.40;;;26.15;;
38358;SDS011;42072;48.044;14.416;2023-09-12T08:18:27;16.98;;;13.90;;
38358;SDS011;42072;48.044;14.416;2023-09-12T08:20:57;18.00;;;14.63;;
38358;SDS011;42072;48.044;14.416;2023-09-12T08:23:25;15.88;;;14.18;;
38358;SDS011;42072;48.044;14.416;2023-09-12T08:25:52;15.02;;;12.77;;
38358;SDS011;42072;48.044;14.416;2023-09-12T08:28:19;15.93;;;14.25;;
38358;SDS011;42072;48.044;14.416;2023-09-12T08:30:46;15.10;;;13.55;;
38358;SDS011;42072;48.044;14.416;2023-09-12T08:33:14;17.45;;;14.10;;
38358;SDS011;42072;48.044;14.416;2023-09-12T08:35:42;15.20;;;12.82;;
38358;SDS011;42072;48.044;14.416;2023-09-12T08:38:09;17.05;;;13.07;;
38358;SDS011;42072;48.044;14.416;2023-09-12T08:40:38;17.50;;;13.00;;
38358;SDS011;42072;48.044;14.416;2023-09-12T08:43:05;14.45;;;12.52;;
38358;SDS011;42072;48.044;14.416;2023-09-12T08:45:33;18.33;;;13.05;;
38358;SDS011;42072;48.044;14.416;2023-09-12T08:48:03;15.23;;;12.63;;
38358;SDS011;42072;48.044;14.416;2023-09-12T08:50:31;18.90;;;13.75;;
38358;SDS011;42072;48.044;14.416;2023-09-12T08:53:01;16.05;;;13.18;;
38358;SDS011;42072;48.044;14.416;2023-09-12T08:55:34;17.17;;;13.70;;
38358;SDS011;42072;48.044;14.416;2023-09-12T08:58:04;19.58;;;14.23;;
38358;SDS011;42072;48.044;14.416;2023-09-12T09:00:33;19.05;;;13.20;;
38358;SDS011;42072;48.044;14.416;2023-09-12T09:03:02;16.73;;;13.88;;
38358;SDS011;42072;48.044;14.416;2023-09-12T09:05:31;17.35;;;13.38;;
38358;SDS011;42072;48.044;14.416;2023-09-12T09:08:02;18.27;;;13.45;;
38358;SDS011;42072;48.044;14.416;2023-09-12T09:10:30;16.95;;;13.50;;
38358;SDS011;42072;48.044;14.416;2023-09-12T09:13:16;18.10;;;14.32;;
38358;SDS011;42072;48.044;14.416;2023-09-12T09:15:45;16.52;;;13.93;;
38358;SDS011;42072;48.044;14.416;2023-09-12T09:18:12;17.35;;;12.93;;
38358;SDS011;42072;48.044;14.416;2023-09-12T09:20:40;15.55;;;12.75;;
38358;SDS011;42072;48.044;14.416;2023-09-12T09:23:16;13.57;;;12.25;;
38358;SDS011;42072;48.044;14.416;2023-09-12T09:25:43;13.80;;;12.35;;
38358;SDS011;42072;48.044;14.416;2023-09-12T09:28:20;14.52;;;12.65;;
38358;SDS011;42072;48.044;14.416;2023-09-12T09:30:51;17.88;;;13.38;;
38358;SDS011;42072;48.044;14.416;2023-09-12T09:33:21;15.43;;;12.68;;
38358;SDS011;42072;48.044;14.416;2023-09-12T09:35:49;14.20;;;12.10;;
38358;SDS011;42072;48.044;14.416;2023-09-12T09:38:19;13.77;;;12.27;;
38358;SDS011;42072;48.044;14.416;2023-09-12T09:40:47;15.80;;;11.50;;
38358;SDS011;42072;48.044;14.416;2023-09-12T09:43:23;13.70;;;12.32;;
38358;SDS011;42072;48.044;14.416;2023-09-12T09:45:51;14.15;;;11.80;;
38358;SDS011;42072;48.044;14.416;2023-09-12T09:48:23;12.60;;;11.07;;
38358;SDS011;42072;48.044;14.416;2023-09-12T09:51:00;14.95;;;11.38;;
38358;SDS011;42072;48.044;14.416;2023-09-12T09:53:29;17.40;;;12.52;;
38358;SDS011;42072;48.044;14.416;2023-09-12T09:56:13;12.40;;;11.05;;
38358;SDS011;42072;48.044;14.416;2023-09-12T10:01:18;16.38;;;11.82;;
38358;SDS011;42072;48.044;14.416;2023-09-12T10:03:49;15.93;;;12.38;;
38358;SDS011;42072;48.044;14.416;2023-09-12T10:06:18;16.17;;;11.68;;
38358;SDS011;42072;48.044;14.416;2023-09-12T10:08:49;16.52;;;10.75;;
38358;SDS011;42072;48.044;14.416;2023-09-12T10:11:18;12.77;;;11.43;;
38358;SDS011;42072;48.044;14.416;2023-09-12T10:13:49;13.85;;;11.18;;
38358;SDS011;42072;48.044;14.416;2023-09-12T10:16:22;14.98;;;11.57;;
38358;SDS011;42072;48.044;14.416;2023-09-12T10:21:53;11.75;;;10.32;;
38358;SDS011;42072;48.044;14.416;2023-09-12T10:24:25;12.63;;;11.38;;
38358;SDS011;42072;48.044;14.416;2023-09-12T10:26:55;16.52;;;11.80;;
38358;SDS011;42072;48.044;14.416;2023-09-12T10:29:23;12.98;;;10.98;;
38358;SDS011;42072;48.044;14.416;2023-09-12T10:31:50;16.25;;;11.52;;
38358;SDS011;42072;48.044;14.416;2023-09-12T10:34:18;14.15;;;11.77;;
38358;SDS011;42072;48.044;14.416;2023-09-12T10:36:46;12.07;;;10.82;;
38358;SDS011;42072;48.044;14.416;2023-09-12T10:39:15;14.93;;;11.02;;
38358;SDS011;42072;48.044;14.416;2023-09-12T10:41:43;16.35;;;12.55;;
38358;SDS011;42072;48.044;14.416;2023-09-12T10:44:14;13.95;;;10.10;;
38358;SDS011;42072;48.044;14.416;2023-09-12T10:46:44;13.65;;;11.38;;
38358;SDS011;42072;48.044;14.416;2023-09-12T10:49:13;14.02;;;12.00;;
38358;SDS011;42072;48.044;14.416;2023-09-12T10:51:42;12.20;;;10.88;;
38358;SDS011;42072;48.044;14.416;2023-09-12T10:54:16;14.98;;;11.55;;
38358;SDS011;42072;48.044;14.416;2023-09-12T10:57:10;12.60;;;11.23;;
38358;SDS011;42072;48.044;14.416;2023-09-12T11:02:30;11.35;;;10.25;;
38358;SDS011;42072;48.044;14.416;2023-09-12T11:05:05;12.38;;;10.65;;
38358;SDS011;42072;48.044;14.416;2023-09-12T11:07:57;12.20;;;9.38;;
38358;SDS011;42072;48.044;14.416;2023-09-12T11:10:26;11.70;;;9.40;;
38358;SDS011;42072;48.044;14.416;2023-09-12T11:12:55;12.43;;;9.40;;
38358;SDS011;42072;48.044;14.416;2023-09-12T11:15:27;10.13;;;9.13;;
38358;SDS011;42072;48.044;14.416;2023-09-12T11:23:21;10.27;;;8.85;;
38358;SDS011;42072;48.044;14.416;2023-09-12T11:25:48;12.60;;;8.95;;
38358;SDS011;42072;48.044;14.416;2023-09-12T11:28:30;10.20;;;9.10;;
38358;SDS011;42072;48.044;14.416;2023-09-12T11:30:58;9.63;;;8.13;;
38358;SDS011;42072;48.044;14.416;2023-09-12T11:33:26;9.25;;;8.35;;
38358;SDS011;42072;48.044;14.416;2023-09-12T11:35:54;9.85;;;7.97;;
38358;SDS011;42072;48.044;14.416;2023-09-12T11:38:28;10.80;;;8.95;;
38358;SDS011;42072;48.044;14.416;2023-09-12T11:40:57;9.25;;;8.23;;
38358;SDS011;42072;48.044;14.416;2023-09-12T11:43:26;14.43;;;8.57;;
38358;SDS011;42072;48.044;14.416;2023-09-12T11:45:55;10.40;;;9.25;;
38358;SDS011;42072;48.044;14.416;2023-09-12T11:48:23;12.38;;;8.55;;
38358;SDS011;42072;48.044;14.416;2023-09-12T11:50:54;12.23;;;9.15;;
38358;SDS011;42072;48.044;14.416;2023-09-12T11:53:23;11.55;;;9.55;;
38358;SDS011;42072;48.044;14.416;2023-09-12T11:55:54;10.35;;;8.98;;
38358;SDS011;42072;48.044;14.416;2023-09-12T11:58:24;12.73;;;9.68;;
38358;SDS011;42072;48.044;14.416;2023-09-12T12:00:52;12.38;;;9.55;;
38358;SDS011;42072;48.044;14.416;2023-09-12T12:03:25;12.32;;;9.30;;
38358;SDS011;42072;48.044;14.416;2023-09-12T12:05:54;10.63;;;8.40;;
38358;SDS011;42072;48.044;14.416;2023-09-12T12:08:22;10.52;;;8.32;;
38358;SDS011;42072;48.044;14.416;2023-09-12T12:10:53;13.38;;;9.52;;
38358;SDS011;42072;48.044;14.416;2023-09-12T12:13:21;12.65;;;9.00;;
38358;SDS011;42072;48.044;14.416;2023-09-12T12:15:50;11.60;;;9.10;;
38358;SDS011;42072;48.044;14.416;2023-09-12T12:18:17;9.73;;;8.60;;
38358;SDS011;42072;48.044;14.416;2023-09-12T12:20:45;14.68;;;8.43;;
38358;SDS011;42072;48.044;14.416;2023-09-12T12:23:13;15.05;;;9.02;;
38358;SDS011;42072;48.044;14.416;2023-09-12T12:25:40;12.63;;;9.25;;
38358;SDS011;42072;48.044;14.416;2023-09-12T12:28:08;16.80;;;9.52;;
38358;SDS011;42072;48.044;14.416;2023-09-12T12:30:35;10.55;;;9.43;;
38358;SDS011;42072;48.044;14.416;2023-09-12T12:33:09;13.27;;;9.07;;
38358;SDS011;42072;48.044;14.416;2023-09-12T12:36:03;11.27;;;8.60;;
38358;SDS011;42072;48.044;14.416;2023-09-12T12:38:35;11.52;;;9.70;;
38358;SDS011;42072;48.044;14.416;2023-09-12T12:41:33;14.32;;;9.55;;
38358;SDS011;42072;48.044;14.416;2023-09-12T12:44:16;11.80;;;8.93;;
38358;SDS011;42072;48.044;14.416;2023-09-12T12:46:51;15.63;;;8.93;;
38358;SDS011;42072;48.044;14.416;2023-09-12T12:49:20;9.27;;;8.35;;
38358;SDS011;42072;48.044;14.416;2023-09-12T12:51:50;8.60;;;7.50;;
38358;SDS011;42072;48.044;14.416;2023-09-12T12:54:21;8.30;;;7.50;;
38358;SDS011;42072;48.044;14.416;2023-09-12T12:56:50;8.63;;;7.82;;
38358;SDS011;42072;48.044;14.416;2023-09-12T12:59:19;10.48;;;7.82;;
38358;SDS011;42072;48.044;14.416;2023-09-12T13:01:46;8.88;;;7.95;;
38358;SDS011;42072;48.044;14.416;2023-09-12T13:04:15;8.88;;;7.57;;
38358;SDS011;42072;48.044;14.416;2023-09-12T13:06:43;9.65;;;8.50;;
38358;SDS011;42072;48.044;14.416;2023-09-12T13:09:11;9.02;;;8.02;;
38358;SDS011;42072;48.044;14.416;2023-09-12T13:11:38;8.27;;;7.47;;
38358;SDS011;42072;48.044;14.416;2023-09-12T13:14:06;11.25;;;10.10;;
38358;SDS011;42072;48.044;14.416;2023-09-12T13:16:38;8.88;;;7.82;;
38358;SDS011;42072;48.044;14.416;2023-09-12T13:19:07;11.57;;;8.43;;
38358;SDS011;42072;48.044;14.416;2023-09-12T13:21:37;10.90;;;9.50;;
38358;SDS011;42072;48.044;14.416;2023-09-12T13:24:05;10.02;;;8.48;;
38358;SDS011;42072;48.044;14.416;2023-09-12T13:26:33;12.15;;;9.50;;
38358;SDS011;42072;48.044;14.416;2023-09-12T13:29:00;10.25;;;8.10;;
38358;SDS011;42072;48.044;14.416;2023-09-12T13:31:27;9.15;;;8.30;;
38358;SDS011;42072;48.044;14.416;2023-09-12T13:33:55;9.32;;;8.18;;
38358;SDS011;42072;48.044;14.416;2023-09-12T13:36:22;12.20;;;8.50;;
38358;SDS011;42072;48.044;14.416;2023-09-12T13:38:50;10.43;;;8.27;;
38358;SDS011;42072;48.044;14.416;2023-09-12T13:41:18;8.88;;;8.00;;
38358;SDS011;42072;48.044;14.416;2023-09-12T13:43:45;12.15;;;8.25;;
38358;SDS011;42072;48.044;14.416;2023-09-12T13:46:13;9.63;;;8.63;;
38358;SDS011;42072;48.044;14.416;2023-09-12T13:48:40;9.65;;;8.10;;
38358;SDS011;42072;48.044;14.416;2023-09-12T13:51:07;8.90;;;7.65;;
38358;SDS011;42072;48.044;14.416;2023-09-12T13:53:35;10.50;;;7.78;;
38358;SDS011;42072;48.044;14.416;2023-09-12T13:56:02;9.15;;;7.93;;
38358;SDS011;42072;48.044;14.416;2023-09-12T13:58:29;11.68;;;7.40;;
38358;SDS011;42072;48.044;14.416;2023-09-12T14:01:12;8.57;;;7.68;;
38358;SDS011;42072;48.044;14.416;2023-09-12T14:03:58;8.65;;;7.75;;
38358;SDS011;42072;48.044;14.416;2023-09-12T14:06:26;9.27;;;6.97;;
38358;SDS011;42072;48.044;14.416;2023-09-12T14:08:54;9.00;;;7.60;;
38358;SDS011;42072;48.044;14.416;2023-09-12T14:11:22;9.15;;;7.97;;
38358;SDS011;42072;48.044;14.416;2023-09-12T14:14:02;14.38;;;11.63;;
38358;SDS011;42072;48.044;14.416;2023-09-12T14:16:34;9.13;;;8.23;;
38358;SDS011;42072;48.044;14.416;2023-09-12T14:19:01;11.43;;;8.73;;
38358;SDS011;42072;48.044;14.416;2023-09-12T14:21:29;9.93;;;8.88;;
38358;SDS011;42072;48.044;14.416;2023-09-12T14:23:57;9.60;;;8.68;;
38358;SDS011;42072;48.044;14.416;2023-09-12T14:26:24;14.20;;;9.35;;
38358;SDS011;42072;48.044;14.416;2023-09-12T14:28:52;11.48;;;8.70;;
38358;SDS011;42072;48.044;14.416;2023-09-12T14:31:20;9.70;;;8.70;;
38358;SDS011;42072;48.044;14.416;2023-09-12T14:33:49;10.25;;;9.20;;
38358;SDS011;42072;48.044;14.416;2023-09-12T14:36:19;12.30;;;9.70;;
38358;SDS011;42072;48.044;14.416;2023-09-12T14:38:46;12.68;;;10.13;;
38358;SDS011;42072;48.044;14.416;2023-09-12T14:41:13;13.30;;;11.02;;
38358;SDS011;42072;48.044;14.416;2023-09-12T14:43:40;12.13;;;10.95;;
38358;SDS011;42072;48.044;14.416;2023-09-12T14:46:08;16.05;;;12.60;;